Time;durP1;ratioP1;P1;durP2;ratioP2;P2;SDS_P1;SDS_P2;PMS_P1;PMS_P2;Temp;Humidity;BMP_temperature;BMP_pressure;BME280_temperature;BME280_humidity;BME280_pressure;Samples;Min_cycle;Max_cycle;Signal;HPM_P1;HPM_P2
2022/06/04 00:02:06;;;;;;;7.40;4.65;;;;;;;22.68;94.14;100312.94;5075150;28;20037;-72
2022/06/04 00:04:35;;;;;;;6.88;4.35;;;;;;;22.58;94.83;100306.78;5075591;28;20049;-72
2022/06/04 00:07:11;;;;;;;7.00;4.45;;;;;;;22.56;99.10;100308.81;5075699;28;20045;-72
2022/06/04 00:15:28;;;;;;;8.20;4.40;;;;;;;22.53;100.00;100315.44;5075643;28;20045;-72
2022/06/04 00:15:33;;;;;;;7.95;4.47;;;;;;;22.36;100.00;100310.16;5075438;28;20090;-74
2022/06/04 00:18:02;;;;;;;7.70;5.00;;;;;;;22.16;100.00;100306.88;5075282;28;20075;-74
2022/06/04 00:20:30;;;;;;;7.10;4.88;;;;;;;22.16;100.00;100307.72;5075039;28;20060;-74
2022/06/04 00:23:01;;;;;;;9.48;5.32;;;;;;;22.04;100.00;100303.59;5074985;28;20040;-74
2022/06/04 00:25:30;;;;;;;6.43;4.80;;;;;;;21.99;100.00;100303.22;5075317;28;20048;-74
2022/06/04 00:27:59;;;;;;;8.52;5.47;;;;;;;21.86;100.00;100289.25;5074915;28;20127;-74
2022/06/04 00:30:28;;;;;;;10.07;5.30;;;;;;;21.84;100.00;100280.44;5075053;28;20053;-74
2022/06/04 00:32:56;;;;;;;8.10;5.35;;;;;;;21.82;100.00;100287.91;5074767;28;20041;-74
2022/06/04 00:35:25;;;;;;;6.95;5.07;;;;;;;21.82;100.00;100285.19;5074994;28;20402;-74
2022/06/04 00:37:54;;;;;;;8.63;5.53;;;;;;;21.74;100.00;100285.16;5074833;28;20082;-74
2022/06/04 00:40:33;;;;;;;8.32;5.20;;;;;;;21.77;100.00;100295.66;5074513;28;20464;-74
2022/06/04 00:43:01;;;;;;;11.48;5.82;;;;;;;21.71;100.00;100311.63;5074651;28;20048;-74
2022/06/04 00:46:17;;;;;;;8.63;5.88;;;;;;;21.61;100.00;100307.28;5074768;28;20040;-74
2022/06/04 00:48:46;;;;;;;7.47;5.88;;;;;;;21.63;100.00;100310.72;5074698;28;20041;-71
2022/06/04 00:51:14;;;;;;;8.85;6.20;;;;;;;21.64;100.00;100296.97;5074606;28;20037;-73
2022/06/04 00:53:43;;;;;;;9.52;6.25;;;;;;;21.58;100.00;100297.63;5074185;28;20037;-72
2022/06/04 00:56:31;;;;;;;7.22;5.40;;;;;;;21.60;100.00;100284.72;5074701;28;20481;-73
2022/06/04 00:59:24;;;;;;;7.20;5.78;;;;;;;21.48;100.00;100286.03;5074034;28;20044;-72
2022/06/04 01:02:02;;;;;;;8.82;6.35;;;;;;;21.46;100.00;100285.34;5074493;28;20127;-71
2022/06/04 01:04:50;;;;;;;8.38;5.82;;;;;;;21.40;100.00;100270.56;5074454;28;20110;-72
2022/06/04 01:07:30;;;;;;;8.07;5.93;;;;;;;21.42;100.00;100273.09;5074568;28;20040;-72
2022/06/04 01:10:32;;;;;;;11.93;6.65;;;;;;;21.56;100.00;100252.66;5074352;28;20481;-74
2022/06/04 01:13:14;;;;;;;8.02;6.00;;;;;;;21.67;100.00;100247.78;5073932;28;20049;-73
2022/06/04 01:15:59;;;;;;;10.80;6.50;;;;;;;21.68;100.00;100245.94;5074232;28;20036;-73
2022/06/04 01:18:36;;;;;;;8.68;5.95;;;;;;;21.45;100.00;100242.09;5073055;28;20051;-72
2022/06/04 01:21:19;;;;;;;8.80;6.53;;;;;;;21.33;100.00;100236.13;5073533;28;20040;-72
2022/06/04 01:24:39;;;;;;;10.00;6.67;;;;;;;21.29;100.00;100224.72;5073852;28;20059;-71
2022/06/04 01:27:16;;;;;;;8.38;6.97;;;;;;;21.37;100.00;100210.34;5073764;28;20055;-71
2022/06/04 01:29:52;;;;;;;9.00;6.45;;;;;;;21.32;100.00;100210.81;5073636;28;20067;-73
2022/06/04 01:32:27;;;;;;;8.30;6.55;;;;;;;21.36;100.00;100203.22;5073657;28;20040;-73
2022/06/04 01:35:04;;;;;;;9.63;6.95;;;;;;;21.25;100.00;100203.50;5073649;28;20051;-71
2022/06/04 01:37:38;;;;;;;10.10;7.32;;;;;;;21.12;100.00;100191.19;5073857;28;20044;-74
2022/06/04 01:43:05;;;;;;;10.15;7.20;;;;;;;20.95;100.00;100194.84;5053072;28;20139;-72
2022/06/04 01:45:36;;;;;;;9.63;7.28;;;;;;;21.00;100.00;100203.34;5073803;28;20439;-72
2022/06/04 01:48:07;;;;;;;8.40;7.05;;;;;;;21.02;100.00;100214.03;5073417;28;20051;-72
2022/06/04 01:50:41;;;;;;;9.20;7.40;;;;;;;21.04;100.00;100223.72;5073414;28;20045;-72
2022/06/04 01:53:12;;;;;;;12.25;7.40;;;;;;;21.00;100.00;100226.91;5072934;28;20119;-72
2022/06/04 01:55:47;;;;;;;11.27;7.78;;;;;;;21.08;100.00;100233.22;5073889;28;20036;-73
2022/06/04 01:58:20;;;;;;;11.02;7.30;;;;;;;21.24;100.00;100216.19;5073370;28;20102;-72
2022/06/04 02:00:52;;;;;;;13.05;7.60;;;;;;;21.20;100.00;100230.22;5073022;28;20110;-71
2022/06/04 02:03:27;;;;;;;11.88;7.55;;;;;;;21.21;100.00;100232.78;5072380;28;20121;-71
2022/06/04 02:05:59;;;;;;;11.77;8.15;;;;;;;21.27;100.00;100239.47;5072030;28;20051;-71
2022/06/04 02:08:32;;;;;;;9.87;6.90;;;;;;;21.11;100.00;100234.75;5073462;28;20431;-71
2022/06/04 02:11:06;;;;;;;10.10;6.95;;;;;;;21.11;100.00;100238.31;5072942;28;20044;-72
2022/06/04 02:13:40;;;;;;;10.43;7.47;;;;;;;20.90;100.00;100242.41;5072166;28;20079;-71
2022/06/04 02:16:14;;;;;;;10.25;8.25;;;;;;;20.86;100.00;100239.19;5072159;28;20061;-70
2022/06/04 02:18:42;;;;;;;11.35;8.35;;;;;;;21.09;100.00;100221.38;5073121;28;20033;-70
2022/06/04 02:21:11;;;;;;;8.93;7.35;;;;;;;21.16;100.00;100224.28;5073085;28;20040;-70
2022/06/04 02:23:44;;;;;;;10.75;7.18;;;;;;;21.16;100.00;100213.44;5073295;28;20055;-71
2022/06/04 02:26:12;;;;;;;11.35;7.70;;;;;;;21.19;100.00;100213.09;5072684;28;20125;-70
2022/06/04 02:28:42;;;;;;;9.38;7.45;;;;;;;20.97;100.00;100211.81;5073124;28;20054;-70
2022/06/04 02:31:19;;;;;;;9.85;7.90;;;;;;;21.08;100.00;100199.84;5072966;28;20044;-70
2022/06/04 02:33:54;;;;;;;11.27;7.82;;;;;;;21.03;100.00;100200.31;5073088;28;20044;-70
2022/06/04 02:36:31;;;;;;;10.70;8.30;;;;;;;21.00;100.00;100207.91;5074161;28;20397;-70
2022/06/04 02:39:08;;;;;;;11.95;8.35;;;;;;;20.88;100.00;100220.91;5077396;28;20041;-72
2022/06/04 02:41:55;;;;;;;10.52;8.55;;;;;;;20.73;100.00;100219.75;5077154;28;20036;-72
2022/06/04 02:44:29;;;;;;;11.52;8.50;;;;;;;20.80;100.00;100215.41;5075622;28;20063;-72
2022/06/04 02:47:04;;;;;;;13.35;8.80;;;;;;;20.75;100.00;100212.31;5077186;28;20484;-72
2022/06/04 02:49:39;;;;;;;11.35;9.07;;;;;;;20.74;100.00;100214.19;5077159;28;20043;-72
2022/06/04 02:52:11;;;;;;;12.20;9.25;;;;;;;20.67;100.00;100215.84;5076788;28;20055;-71
2022/06/04 02:54:55;;;;;;;12.55;8.88;;;;;;;20.68;100.00;100217.53;5076945;28;20047;-72
2022/06/04 02:57:25;;;;;;;10.70;8.35;;;;;;;20.84;100.00;100224.91;5076978;28;20036;-72
2022/06/04 02:59:56;;;;;;;12.75;8.75;;;;;;;20.80;100.00;100227.09;5075754;28;20056;-72
2022/06/04 03:02:27;;;;;;;11.45;8.73;;;;;;;20.86;100.00;100226.47;5076769;28;20123;-72
2022/06/04 03:04:56;;;;;;;10.85;8.10;;;;;;;20.79;100.00;100235.41;5076695;28;20102;-76
2022/06/04 03:07:26;;;;;;;11.93;8.48;;;;;;;20.80;100.00;100237.09;5076375;28;20481;-72
2022/06/04 03:10:02;;;;;;;12.85;8.27;;;;;;;20.73;100.00;100241.44;5076803;28;20040;-72
2022/06/04 03:12:31;;;;;;;12.48;8.57;;;;;;;20.72;100.00;100234.31;5076691;28;20036;-72
2022/06/04 03:15:00;;;;;;;10.95;8.98;;;;;;;20.75;100.00;100228.59;5076115;28;20037;-72
2022/06/04 03:17:29;;;;;;;12.35;8.63;;;;;;;20.73;100.00;100223.31;5076445;28;20558;-70
2022/06/04 03:19:58;;;;;;;10.73;8.05;;;;;;;20.69;100.00;100218.38;5074944;28;20059;-74
2022/06/04 03:22:26;;;;;;;11.95;9.07;;;;;;;20.46;100.00;100220.72;5076343;28;20047;-73
2022/06/04 03:24:55;;;;;;;13.43;9.77;;;;;;;20.21;100.00;100216.94;5075204;28;20052;-73
2022/06/04 03:27:23;;;;;;;10.90;8.82;;;;;;;20.17;100.00;100213.69;5076249;28;20421;-73
2022/06/04 03:29:51;;;;;;;12.20;9.68;;;;;;;20.16;100.00;100216.53;5075886;28;20128;-73
2022/06/04 03:32:21;;;;;;;12.48;9.48;;;;;;;20.32;100.00;100214.00;5075944;28;20041;-73
2022/06/04 03:34:51;;;;;;;13.82;9.23;;;;;;;20.27;100.00;100219.03;5075986;28;20051;-73
2022/06/04 03:37:20;;;;;;;13.07;9.30;;;;;;;20.35;100.00;100224.50;5075605;28;20127;-74
2022/06/04 03:39:48;;;;;;;12.82;9.13;;;;;;;20.33;100.00;100223.81;5076242;28;20118;-75
2022/06/04 03:42:16;;;;;;;13.50;9.18;;;;;;;20.51;100.00;100231.97;5075891;28;20143;-72
2022/06/04 03:44:47;;;;;;;15.13;9.73;;;;;;;20.48;100.00;100226.88;5075959;28;20098;-75
2022/06/04 03:47:17;;;;;;;11.38;8.68;;;;;;;20.57;100.00;100229.50;5075553;28;20047;-74
2022/06/04 03:49:47;;;;;;;11.00;7.72;;;;;;;20.67;100.00;100220.41;5075754;28;20505;-73
2022/06/04 03:52:18;;;;;;;13.15;7.82;;;;;;;20.64;100.00;100218.84;5075619;28;20064;-72
2022/06/04 03:54:57;;;;;;;9.23;7.18;;;;;;;20.52;100.00;100212.00;5075763;28;20440;-73
2022/06/04 03:57:48;;;;;;;9.65;6.60;;;;;;;20.38;100.00;100207.97;5075929;28;20048;-73
2022/06/04 04:00:20;;;;;;;9.18;6.40;;;;;;;20.32;100.00;100211.28;5075011;28;20060;-72
2022/06/04 04:02:50;;;;;;;10.73;6.70;;;;;;;20.39;100.00;100211.50;5075659;28;20068;-72
2022/06/04 04:05:23;;;;;;;12.05;6.47;;;;;;;20.27;100.00;100213.63;5075165;28;20091;-72
2022/06/04 04:07:51;;;;;;;10.87;6.10;;;;;;;20.25;100.00;100216.47;5075743;28;20064;-72
2022/06/04 04:10:19;;;;;;;9.98;6.40;;;;;;;20.17;100.00;100218.22;5074876;28;20045;-73
2022/06/04 04:12:48;;;;;;;11.05;6.25;;;;;;;20.15;100.00;100220.25;5075413;28;20040;-73
2022/06/04 04:15:17;;;;;;;10.10;6.60;;;;;;;20.05;100.00;100208.66;5073575;28;20511;-73
2022/06/04 04:17:46;;;;;;;12.30;6.95;;;;;;;19.92;100.00;100209.88;5075631;28;20045;-73
2022/06/04 04:20:19;;;;;;;12.10;6.47;;;;;;;19.80;100.00;100210.28;5074854;28;20043;-73
2022/06/04 04:22:49;;;;;;;10.13;6.07;;;;;;;19.71;100.00;100203.91;5075281;28;20040;-73
2022/06/04 04:25:26;;;;;;;11.10;6.63;;;;;;;19.79;100.00;100211.28;5074869;28;20053;-72
2022/06/04 04:27:55;;;;;;;14.70;6.15;;;;;;;19.66;100.00;100206.22;5075235;28;20036;-73
2022/06/04 04:30:27;;;;;;;11.75;6.30;;;;;;;19.72;100.00;100211.03;5074826;28;20456;-70
2022/06/04 04:32:55;;;;;;;8.45;5.38;;;;;;;19.72;100.00;100213.72;5075109;28;20036;-70
2022/06/04 04:35:25;;;;;;;9.25;5.13;;;;;;;19.78;100.00;100218.50;5074727;28;20044;-70
2022/06/04 04:37:55;;;;;;;15.05;5.65;;;;;;;19.75;100.00;100224.25;5075153;28;20044;-69
2022/06/04 04:40:26;;;;;;;10.15;5.00;;;;;;;19.79;100.00;100231.06;5075083;28;20173;-70
2022/06/04 04:42:55;;;;;;;14.20;5.68;;;;;;;19.72;100.00;100236.22;5073672;28;20068;-70
2022/06/04 04:45:25;;;;;;;12.02;5.30;;;;;;;19.64;100.00;100249.66;5074170;28;20042;-70
2022/06/04 04:47:54;;;;;;;11.10;5.18;;;;;;;19.73;100.00;100264.13;5074254;28;20477;-69
2022/06/04 04:50:27;;;;;;;11.35;5.65;;;;;;;19.41;100.00;100297.84;5074203;28;20091;-70
2022/06/04 04:53:06;;;;;;;16.23;6.97;;;;;;;19.48;100.00;100291.84;5074502;28;20079;-72
2022/06/04 04:55:35;;;;;;;13.65;7.13;;;;;;;19.50;100.00;100262.81;5074683;28;20474;-74
2022/06/04 04:58:05;;;;;;;21.13;6.53;;;;;;;19.63;100.00;100247.94;5073779;28;20051;-71
2022/06/04 05:00:34;;;;;;;14.50;5.57;;;;;;;19.67;100.00;100249.34;5074445;28;20064;-71
2022/06/04 05:03:02;;;;;;;12.13;5.80;;;;;;;19.65;100.00;100254.06;5074426;28;20044;-71
2022/06/04 05:05:31;;;;;;;12.35;5.63;;;;;;;19.65;100.00;100234.28;5074391;28;20040;-73
2022/06/04 05:07:59;;;;;;;16.88;6.30;;;;;;;19.66;100.00;100230.56;5074132;28;20405;-73
2022/06/04 05:10:31;;;;;;;7.50;4.40;;;;;;;19.46;100.00;100213.53;5074006;28;20456;-73
2022/06/04 05:12:59;;;;;;;10.15;4.50;;;;;;;19.45;100.00;100214.56;5073166;28;20431;-72
2022/06/04 05:15:27;;;;;;;12.75;5.30;;;;;;;19.49;100.00;100206.97;5073926;28;20123;-72
2022/06/04 05:17:56;;;;;;;12.52;4.95;;;;;;;19.45;100.00;100215.41;5073950;28;20044;-72
2022/06/04 05:20:24;;;;;;;10.80;4.50;;;;;;;19.55;100.00;100209.09;5073591;28;20122;-73
2022/06/04 05:22:52;;;;;;;11.57;5.05;;;;;;;19.52;100.00;100212.97;5074178;28;20044;-73
2022/06/04 05:25:23;;;;;;;13.88;5.38;;;;;;;19.64;100.00;100217.19;5073714;28;20378;-72
2022/06/04 05:27:53;;;;;;;14.63;5.13;;;;;;;19.66;100.00;100230.56;5072667;28;20044;-72
2022/06/04 05:30:23;;;;;;;13.55;4.70;;;;;;;19.66;100.00;100230.56;5072522;28;20173;-72
2022/06/04 05:32:52;;;;;;;14.45;4.55;;;;;;;19.75;100.00;100229.66;5073942;28;20036;-72
2022/06/04 05:35:20;;;;;;;14.40;5.38;;;;;;;19.75;100.00;100237.78;5073477;28;20210;-74
2022/06/04 05:37:52;;;;;;;13.50;5.05;;;;;;;19.83;100.00;100223.47;5072609;28;20048;-74
2022/06/04 05:40:20;;;;;;;14.00;5.00;;;;;;;20.06;100.00;100232.00;5072080;28;20049;-74
2022/06/04 05:42:49;;;;;;;7.65;4.60;;;;;;;20.19;100.00;100237.91;5073778;28;20098;-74
2022/06/04 05:45:18;;;;;;;10.85;4.88;;;;;;;20.21;100.00;100238.59;5073366;28;20071;-74
2022/06/04 05:47:46;;;;;;;11.77;4.90;;;;;;;20.21;100.00;100236.75;5073626;28;20485;-73
2022/06/04 05:50:15;;;;;;;11.07;4.88;;;;;;;20.07;100.00;100239.13;5073501;28;20048;-73
2022/06/04 05:52:43;;;;;;;11.27;4.65;;;;;;;20.26;100.00;100249.81;5073646;28;20045;-73
2022/06/04 05:55:11;;;;;;;8.57;4.38;;;;;;;20.33;100.00;100248.19;5073159;28;20119;-73
2022/06/04 05:57:40;;;;;;;11.00;4.65;;;;;;;20.42;100.00;100244.56;5073645;28;20128;-74
2022/06/04 06:00:09;;;;;;;9.20;4.22;;;;;;;20.58;100.00;100243.88;5072848;28;20083;-74
2022/06/04 06:02:39;;;;;;;10.57;4.45;;;;;;;20.99;100.00;100234.19;5073450;28;20466;-73
2022/06/04 06:05:08;;;;;;;12.93;4.45;;;;;;;21.09;100.00;100234.06;5073278;28;20048;-73
2022/06/04 06:07:37;;;;;;;11.63;4.53;;;;;;;22.05;100.00;100240.09;5073423;28;20041;-74
2022/06/04 06:10:06;;;;;;;8.02;3.85;;;;;;;21.66;100.00;100251.53;5072235;28;20493;-73
2022/06/04 06:12:34;;;;;;;11.20;4.53;;;;;;;21.37;100.00;100251.06;5073199;28;20098;-73
2022/06/04 06:15:06;;;;;;;9.60;4.50;;;;;;;21.32;100.00;100248.81;5073374;28;20047;-71
2022/06/04 06:17:35;;;;;;;10.90;4.60;;;;;;;21.01;100.00;100240.28;5073174;28;20040;-71
2022/06/04 06:20:06;;;;;;;9.43;4.28;;;;;;;21.03;100.00;100248.25;5073397;28;20037;-71
2022/06/04 06:22:36;;;;;;;10.25;4.53;;;;;;;20.97;100.00;100249.78;5072029;28;20081;-71
2022/06/04 06:25:05;;;;;;;10.80;4.68;;;;;;;20.83;100.00;100253.03;5073207;28;20036;-73
2022/06/04 06:27:34;;;;;;;10.43;4.68;;;;;;;20.66;100.00;100240.41;5073133;28;20047;-72
2022/06/04 06:30:03;;;;;;;11.63;4.55;;;;;;;20.53;100.00;100244.34;5073137;28;20087;-71
2022/06/04 06:32:31;;;;;;;11.23;4.47;;;;;;;20.49;100.00;100245.66;5072883;28;20071;-71
2022/06/04 06:35:00;;;;;;;9.63;4.63;;;;;;;20.22;100.00;100237.59;5071998;28;20072;-69
2022/06/04 06:37:29;;;;;;;8.07;4.20;;;;;;;20.16;100.00;100238.19;5072646;28;20048;-70
2022/06/04 06:39:57;;;;;;;8.75;4.43;;;;;;;20.29;100.00;100244.09;5073294;28;20044;-69
2022/06/04 06:42:25;;;;;;;10.25;4.53;;;;;;;20.30;100.00;100240.38;5072491;28;20072;-69
2022/06/04 06:44:54;;;;;;;12.18;4.65;;;;;;;20.24;100.00;100243.69;5071947;28;20521;-69
2022/06/04 06:47:22;;;;;;;11.80;4.30;;;;;;;20.21;100.00;100241.31;5072334;28;20512;-69
2022/06/04 06:49:51;;;;;;;13.05;4.72;;;;;;;20.20;100.00;100242.31;5073092;28;20044;-69
2022/06/04 06:52:20;;;;;;;15.43;4.30;;;;;;;20.27;100.00;100235.28;5072718;28;20042;-71
2022/06/04 06:54:50;;;;;;;11.88;4.82;;;;;;;20.14;100.00;100234.81;5072872;28;20048;-71
2022/06/04 06:57:19;;;;;;;10.73;4.18;;;;;;;20.15;100.00;100225.66;5072539;28;20055;-71
2022/06/04 06:59:48;;;;;;;12.23;4.88;;;;;;;20.25;100.00;100212.91;5072614;28;20393;-71
2022/06/04 07:02:17;;;;;;;10.30;4.75;;;;;;;20.25;100.00;100221.03;5072320;28;20144;-70
2022/06/04 07:04:45;;;;;;;10.13;5.40;;;;;;;20.22;100.00;100215.94;5072787;28;20044;-69
2022/06/04 07:07:13;;;;;;;15.10;5.20;;;;;;;20.23;100.00;100207.66;5072457;28;20041;-69
2022/06/04 07:09:44;;;;;;;9.68;4.70;;;;;;;20.21;100.00;100203.41;5072484;28;20037;-72
2022/06/04 07:12:14;;;;;;;13.15;5.10;;;;;;;20.01;100.00;100202.69;5072217;28;20051;-73
2022/06/04 07:14:45;;;;;;;13.05;5.35;;;;;;;19.98;100.00;100203.88;5072433;28;20059;-72
2022/06/04 07:17:13;;;;;;;12.05;5.25;;;;;;;20.04;100.00;100212.38;5072330;28;20053;-71
2022/06/04 07:19:41;;;;;;;12.68;5.40;;;;;;;19.95;100.00;100204.16;5072497;28;20045;-71
2022/06/04 07:22:10;;;;;;;11.40;5.22;;;;;;;19.90;100.00;100209.19;5073977;28;20048;-71
2022/06/04 07:24:39;;;;;;;13.57;5.45;;;;;;;19.96;100.00;100200.44;5074887;28;20415;-70
2022/06/04 07:27:08;;;;;;;10.10;5.38;;;;;;;20.07;100.00;100206.63;5076075;28;20044;-70
2022/06/04 07:29:38;;;;;;;9.63;4.90;;;;;;;20.01;100.00;100208.97;5075825;28;20453;-71
2022/06/04 07:32:10;;;;;;;10.80;5.30;;;;;;;20.14;100.00;100205.00;5076165;28;20086;-70
2022/06/04 07:34:38;;;;;;;10.40;4.78;;;;;;;20.19;100.00;100210.84;5076115;28;20040;-71
2022/06/04 07:37:09;;;;;;;11.30;5.63;;;;;;;20.19;100.00;100213.53;5075609;28;20040;-71
2022/06/04 07:39:37;;;;;;;11.70;5.43;;;;;;;20.34;100.00;100211.97;5075638;28;20127;-71
2022/06/04 07:42:06;;;;;;;9.70;5.25;;;;;;;20.32;100.00;100216.69;5075871;28;20044;-71
2022/06/04 07:44:34;;;;;;;11.07;5.20;;;;;;;20.32;100.00;100216.69;5075699;28;20048;-71
2022/06/04 07:47:06;;;;;;;12.15;5.68;;;;;;;20.36;100.00;100211.81;5075959;28;20397;-71
2022/06/04 07:49:39;;;;;;;11.55;4.97;;;;;;;20.39;100.00;100214.22;5076106;28;20072;-71
2022/06/04 07:52:08;;;;;;;10.65;5.30;;;;;;;20.38;100.00;100210.66;5075584;28;20046;-71
2022/06/04 07:54:36;;;;;;;10.57;5.20;;;;;;;20.51;100.00;100215.72;5075221;28;20545;-71
2022/06/04 07:57:04;;;;;;;12.70;5.13;;;;;;;20.74;100.00;100206.03;5074806;28;20405;-71
2022/06/04 07:59:35;;;;;;;13.10;6.03;;;;;;;21.05;100.00;100202.88;5075264;28;20078;-71
2022/06/04 08:02:05;;;;;;;10.65;5.65;;;;;;;21.34;100.00;100197.13;5075418;28;20041;-71
2022/06/04 08:04:33;;;;;;;13.80;5.55;;;;;;;21.49;100.00;100208.19;5075055;28;20056;-71
2022/06/04 08:07:04;;;;;;;11.88;5.57;;;;;;;21.53;100.00;100205.00;5074207;28;20056;-71
2022/06/04 08:09:33;;;;;;;10.80;5.65;;;;;;;21.52;100.00;100203.31;5075394;28;20041;-73
2022/06/04 08:12:01;;;;;;;9.65;5.07;;;;;;;21.84;100.00;100201.69;5075386;28;20049;-73
2022/06/04 08:14:29;;;;;;;9.00;4.95;;;;;;;21.95;100.00;100206.81;5075136;28;20072;-73
2022/06/04 08:17:01;;;;;;;7.00;4.70;;;;;;;22.26;100.00;100191.59;5073973;28;20044;-73
2022/06/04 08:19:33;;;;;;;7.15;4.70;;;;;;;22.70;100.00;100193.97;5075112;28;20071;-73
2022/06/04 08:22:01;;;;;;;8.20;4.18;;;;;;;23.01;100.00;100209.59;5075031;28;20052;-72
2022/06/04 08:24:30;;;;;;;7.13;4.28;;;;;;;23.15;100.00;100195.25;5074943;28;20041;-73
2022/06/04 08:26:59;;;;;;;6.88;4.15;;;;;;;23.23;100.00;100199.81;5075160;28;20044;-73
2022/06/04 08:29:30;;;;;;;8.38;4.18;;;;;;;23.33;100.00;100190.44;5075151;28;20044;-72
2022/06/04 08:32:00;;;;;;;7.40;4.78;;;;;;;23.61;100.00;100185.41;5073986;28;20063;-71
2022/06/04 08:34:28;;;;;;;7.43;4.45;;;;;;;24.15;100.00;100199.03;5072343;28;20049;-72
2022/06/04 08:36:58;;;;;;;8.50;4.88;;;;;;;24.23;100.00;100193.53;5074805;28;20045;-71
2022/06/04 08:39:28;;;;;;;7.32;3.85;;;;;;;23.90;100.00;100192.91;5074599;28;20090;-74
2022/06/04 08:42:06;;;;;;;10.05;4.97;;;;;;;23.47;100.00;100196.19;5074988;28;20051;-75
2022/06/04 08:44:38;;;;;;;8.20;4.63;;;;;;;23.29;100.00;100208.16;5074374;28;20105;-73
2022/06/04 08:47:15;;;;;;;7.88;4.68;;;;;;;23.50;100.00;100198.53;5074498;28;20049;-72
2022/06/04 08:49:48;;;;;;;8.02;4.55;;;;;;;23.37;100.00;100197.22;5074708;28;20036;-73
2022/06/04 08:52:21;;;;;;;8.98;4.57;;;;;;;23.65;100.00;100194.09;5074766;28;20032;-73
2022/06/04 08:57:46;;;;;;;8.10;4.93;;;;;;;23.75;100.00;100200.16;5074021;28;20040;-71
2022/06/04 09:00:19;;;;;;;8.80;5.13;;;;;;;23.54;100.00;100200.72;5072997;28;20057;-71
2022/06/04 09:02:58;;;;;;;8.52;5.40;;;;;;;23.33;100.00;100209.47;5073332;28;20102;-71
2022/06/04 09:05:36;;;;;;;8.13;4.85;;;;;;;23.21;100.00;100199.16;5073987;28;20037;-74
2022/06/04 09:08:12;;;;;;;10.00;5.22;;;;;;;23.35;100.00;100195.69;5073287;28;20469;-72
2022/06/04 09:10:43;;;;;;;8.93;4.70;;;;;;;23.38;100.00;100203.53;5072718;28;20048;-74
2022/06/04 09:13:18;;;;;;;7.25;4.38;;;;;;;23.32;100.00;100202.34;5074321;28;20394;-73
2022/06/04 09:15:51;;;;;;;10.80;4.90;;;;;;;23.43;100.00;100203.81;5074308;28;20050;-71
2022/06/04 09:18:24;;;;;;;12.18;5.53;;;;;;;23.49;100.00;100194.97;5072768;28;20076;-71
2022/06/04 09:20:53;;;;;;;;;;;;;;;23.21;100.00;100196.44;5074308;28;20075;-71
2022/06/04 09:23:32;;;;;;;7.97;5.32;;;;;;;22.83;100.00;100199.72;5072874;28;19920;-71
2022/06/04 09:26:05;;;;;;;9.82;5.60;;;;;;;22.50;100.00;100195.34;5073701;28;20123;-71
2022/06/04 09:28:45;;;;;;;9.60;5.33;;;;;;;22.39;100.00;100199.25;5073698;28;20132;-71
2022/06/04 09:31:26;;;;;;;10.38;5.93;;;;;;;22.42;100.00;100198.06;5073930;28;20293;-71
2022/06/04 09:34:04;;;;;;;9.15;5.82;;;;;;;22.47;100.00;100201.97;5073945;28;20040;-71
2022/06/04 09:36:34;;;;;;;8.13;5.55;;;;;;;22.64;100.00;100191.94;5072251;28;20485;-71
2022/06/04 09:39:07;;;;;;;9.02;5.85;;;;;;;22.55;100.00;100187.53;5073311;28;20054;-71
2022/06/04 09:41:35;;;;;;;8.63;5.88;;;;;;;22.49;100.00;100186.34;5072339;28;20048;-71
2022/06/04 09:44:07;;;;;;;9.10;6.05;;;;;;;22.43;100.00;100183.47;5073312;28;20047;-71
2022/06/04 09:46:36;;;;;;;10.50;5.88;;;;;;;22.31;100.00;100190.25;5073246;28;20040;-71
2022/06/04 09:49:14;;;;;;;10.30;5.93;;;;;;;22.20;100.00;100195.00;5073358;28;20041;-71
2022/06/04 09:51:44;;;;;;;12.82;6.20;;;;;;;22.17;100.00;100195.31;5073126;28;20044;-72
2022/06/04 09:54:29;;;;;;;11.35;6.03;;;;;;;22.41;100.00;100212.69;5073616;28;20436;-71
2022/06/04 09:57:02;;;;;;;10.77;6.22;;;;;;;22.44;100.00;100206.91;5073340;28;20064;-70
2022/06/04 09:59:33;;;;;;;11.88;6.22;;;;;;;22.66;100.00;100203.47;5071863;28;20049;-71
2022/06/04 10:02:17;;;;;;;9.75;5.75;;;;;;;22.83;100.00;100207.88;5073388;28;20051;-70
2022/06/04 10:04:48;;;;;;;9.63;6.30;;;;;;;22.78;100.00;100202.13;5072920;28;20067;-71
2022/06/04 10:07:20;;;;;;;9.93;6.35;;;;;;;22.38;100.00;100202.13;5073513;28;20090;-70
2022/06/04 10:09:56;;;;;;;10.07;6.03;;;;;;;22.59;100.00;100199.75;5073194;28;20036;-70
2022/06/04 10:15:26;;;;;;;9.93;6.03;;;;;;;23.28;100.00;100190.13;5072164;28;20048;-70
2022/06/04 10:18:06;;;;;;;10.57;6.05;;;;;;;23.34;100.00;100194.00;5073263;28;20064;-72
2022/06/04 10:20:35;;;;;;;9.80;6.75;;;;;;;23.21;100.00;100194.56;5073071;28;20052;-71
2022/06/04 10:23:07;;;;;;;10.73;6.88;;;;;;;23.29;100.00;100197.25;5073215;28;20098;-72
2022/06/04 10:25:49;;;;;;;10.17;6.87;;;;;;;23.52;100.00;100199.19;5072616;28;20072;-73
2022/06/04 10:28:31;;;;;;;10.27;6.82;;;;;;;23.89;100.00;100201.25;5073390;28;20285;-74
2022/06/04 10:31:08;;;;;;;10.95;7.35;;;;;;;23.92;100.00;100204.44;5072856;28;20102;-72
2022/06/04 10:33:49;;;;;;;10.55;7.03;;;;;;;24.14;100.00;100215.56;5071031;28;20049;-74
2022/06/04 10:36:39;;;;;;;9.85;6.22;;;;;;;23.87;100.00;100206.88;5072216;28;20042;-74
2022/06/04 10:39:20;;;;;;;10.13;6.10;;;;;;;23.49;100.00;100210.44;5070567;28;20103;-74
2022/06/04 10:41:56;;;;;;;8.73;6.25;;;;;;;23.53;100.00;100207.19;5072886;28;20068;-74
2022/06/04 10:44:51;;;;;;;9.88;6.50;;;;;;;24.16;100.00;100216.25;5073048;28;20048;-74
2022/06/04 10:47:27;;;;;;;10.68;6.07;;;;;;;24.17;100.00;100217.94;5068205;28;20044;-73
2022/06/04 10:50:12;;;;;;;11.10;6.20;;;;;;;24.53;100.00;100221.78;5071489;28;20102;-75
2022/06/04 10:52:44;;;;;;;10.77;6.45;;;;;;;24.79;100.00;100213.16;5072806;28;20044;-74
2022/06/04 10:55:20;;;;;;;10.43;6.70;;;;;;;24.54;100.00;100214.44;5071945;28;20044;-74
2022/06/04 10:58:01;;;;;;;12.40;6.53;;;;;;;25.05;100.00;100218.22;5075082;28;20039;-74
2022/06/04 11:00:36;;;;;;;10.30;7.03;;;;;;;24.96;100.00;100213.84;5076510;28;20053;-74
2022/06/04 11:03:10;;;;;;;9.35;6.68;;;;;;;24.42;100.00;100205.84;5075796;28;20509;-74
2022/06/04 11:05:45;;;;;;;12.60;7.72;;;;;;;24.34;100.00;100211.38;5076532;28;20041;-74
2022/06/04 11:08:19;;;;;;;11.15;7.53;;;;;;;24.51;100.00;100218.38;5076145;28;20498;-75
2022/06/04 11:10:52;;;;;;;11.27;7.22;;;;;;;24.04;100.00;100218.53;5075102;28;20086;-74
2022/06/04 11:13:27;;;;;;;11.07;7.13;;;;;;;24.38;100.00;100226.31;5076688;28;20064;-74
2022/06/04 11:16:01;;;;;;;11.13;6.78;;;;;;;24.57;100.00;100229.59;5074988;28;20491;-74
2022/06/04 11:18:41;;;;;;;12.43;6.45;;;;;;;24.34;100.00;100235.06;5075880;28;20056;-74
2022/06/04 11:21:18;;;;;;;11.20;7.13;;;;;;;24.15;100.00;100230.91;5076469;28;20457;-74
2022/06/04 11:23:53;;;;;;;9.85;6.63;;;;;;;24.80;100.00;100235.84;5074980;28;20455;-74
2022/06/04 11:26:28;;;;;;;10.20;7.40;;;;;;;24.85;100.00;100230.69;5075109;28;20061;-74
2022/06/04 11:29:04;;;;;;;8.38;6.35;;;;;;;24.76;100.00;100234.53;5076424;28;20057;-74
2022/06/04 11:31:55;;;;;;;12.77;5.80;;;;;;;24.74;100.00;100236.59;5074647;28;20401;-73
2022/06/04 11:34:49;;;;;;;10.00;7.30;;;;;;;24.48;100.00;100243.28;5075984;28;20123;-73
2022/06/04 11:37:31;;;;;;;9.27;6.18;;;;;;;24.62;100.00;100244.38;5082203;28;20489;-72
2022/06/04 11:40:10;;;;;;;9.95;6.47;;;;;;;24.22;100.00;100243.63;5076080;28;20097;-72
2022/06/04 11:42:53;;;;;;;10.25;6.68;;;;;;;24.26;100.00;100255.00;5075574;28;20040;-72
2022/06/04 11:45:36;;;;;;;12.55;6.60;;;;;;;23.99;100.00;100249.03;5075908;28;20075;-71
2022/06/04 11:48:37;;;;;;;10.40;7.10;;;;;;;24.03;100.00;100248.66;5075584;28;20033;-74
2022/06/04 11:51:19;;;;;;;10.57;6.45;;;;;;;24.24;100.00;100254.34;5069467;28;20075;-75